sensor_id;sensor_type;location;lat;lon;timestamp;P1;durP1;ratioP1;P2;durP2;ratioP2
15516;SDS011;7860;52.030;5.572;2022-08-21T00:02:48;8.42;;;4.29;;
15516;SDS011;7860;52.030;5.572;2022-08-21T00:02:49;8.41;;;4.18;;
15516;SDS011;7860;52.030;5.572;2022-08-21T00:02:49;10.08;;;4.55;;
15516;SDS011;7860;52.030;5.572;2022-08-21T00:03:27;8.81;;;4.13;;
15516;SDS011;7860;52.030;5.572;2022-08-21T00:04:27;9.86;;;4.33;;
15516;SDS011;7860;52.030;5.572;2022-08-21T00:05:32;9.19;;;3.98;;
15516;SDS011;7860;52.030;5.572;2022-08-21T00:06:27;9.98;;;4.56;;
15516;SDS011;7860;52.030;5.572;2022-08-21T00:07:27;10.26;;;4.67;;
15516;SDS011;7860;52.030;5.572;2022-08-21T00:08:27;11.06;;;4.66;;
15516;SDS011;7860;52.030;5.572;2022-08-21T00:09:27;8.69;;;4.34;;
15516;SDS011;7860;52.030;5.572;2022-08-21T00:10:27;10.13;;;4.81;;
15516;SDS011;7860;52.030;5.572;2022-08-21T00:11:27;9.00;;;4.36;;
15516;SDS011;7860;52.030;5.572;2022-08-21T00:12:27;10.06;;;4.58;;
15516;SDS011;7860;52.030;5.572;2022-08-21T00:13:27;9.40;;;4.18;;
15516;SDS011;7860;52.030;5.572;2022-08-21T00:14:27;8.83;;;4.31;;
15516;SDS011;7860;52.030;5.572;2022-08-21T00:15:30;9.35;;;4.37;;
15516;SDS011;7860;52.030;5.572;2022-08-21T00:16:28;8.81;;;4.84;;
15516;SDS011;7860;52.030;5.572;2022-08-21T00:17:28;9.59;;;4.81;;
15516;SDS011;7860;52.030;5.572;2022-08-21T00:18:29;10.69;;;4.78;;
15516;SDS011;7860;52.030;5.572;2022-08-21T00:19:29;9.20;;;4.77;;
15516;SDS011;7860;52.030;5.572;2022-08-21T00:20:29;10.72;;;4.52;;
15516;SDS011;7860;52.030;5.572;2022-08-21T00:21:29;11.43;;;4.89;;
15516;SDS011;7860;52.030;5.572;2022-08-21T00:22:29;11.16;;;4.69;;
15516;SDS011;7860;52.030;5.572;2022-08-21T00:23:29;10.58;;;4.53;;
15516;SDS011;7860;52.030;5.572;2022-08-21T00:24:29;9.17;;;4.18;;
15516;SDS011;7860;52.030;5.572;2022-08-21T00:25:29;9.16;;;4.53;;
15516;SDS011;7860;52.030;5.572;2022-08-21T00:26:29;11.55;;;5.13;;
15516;SDS011;7860;52.030;5.572;2022-08-21T00:27:29;10.86;;;5.00;;
15516;SDS011;7860;52.030;5.572;2022-08-21T00:28:29;9.84;;;4.93;;
15516;SDS011;7860;52.030;5.572;2022-08-21T00:29:29;10.92;;;4.93;;
15516;SDS011;7860;52.030;5.572;2022-08-21T00:30:29;11.00;;;4.91;;
15516;SDS011;7860;52.030;5.572;2022-08-21T00:31:29;11.08;;;5.25;;
15516;SDS011;7860;52.030;5.572;2022-08-21T00:32:29;10.69;;;5.29;;
15516;SDS011;7860;52.030;5.572;2022-08-21T00:33:30;11.74;;;5.02;;
15516;SDS011;7860;52.030;5.572;2022-08-21T00:34:29;10.73;;;4.83;;
15516;SDS011;7860;52.030;5.572;2022-08-21T00:35:30;10.76;;;5.18;;
15516;SDS011;7860;52.030;5.572;2022-08-21T00:36:29;12.58;;;5.31;;
15516;SDS011;7860;52.030;5.572;2022-08-21T00:37:29;10.46;;;5.28;;
15516;SDS011;7860;52.030;5.572;2022-08-21T00:38:30;10.31;;;5.31;;
15516;SDS011;7860;52.030;5.572;2022-08-21T00:39:29;11.18;;;5.28;;
15516;SDS011;7860;52.030;5.572;2022-08-21T00:40:32;10.73;;;5.33;;
15516;SDS011;7860;52.030;5.572;2022-08-21T00:41:31;11.39;;;5.31;;
15516;SDS011;7860;52.030;5.572;2022-08-21T00:42:31;10.68;;;5.64;;
15516;SDS011;7860;52.030;5.572;2022-08-21T00:43:32;12.83;;;5.57;;
15516;SDS011;7860;52.030;5.572;2022-08-21T00:44:31;10.12;;;5.25;;
15516;SDS011;7860;52.030;5.572;2022-08-21T00:45:31;10.52;;;4.97;;
15516;SDS011;7860;52.030;5.572;2022-08-21T00:46:31;12.62;;;5.31;;
15516;SDS011;7860;52.030;5.572;2022-08-21T00:47:31;9.24;;;4.77;;
15516;SDS011;7860;52.030;5.572;2022-08-21T00:48:31;10.98;;;5.04;;
15516;SDS011;7860;52.030;5.572;2022-08-21T00:49:31;11.53;;;5.21;;
15516;SDS011;7860;52.030;5.572;2022-08-21T00:50:32;11.45;;;5.42;;
15516;SDS011;7860;52.030;5.572;2022-08-21T00:51:33;9.66;;;4.92;;
15516;SDS011;7860;52.030;5.572;2022-08-21T00:52:32;10.44;;;5.52;;
15516;SDS011;7860;52.030;5.572;2022-08-21T00:53:31;11.79;;;5.13;;
15516;SDS011;7860;52.030;5.572;2022-08-21T00:54:31;10.29;;;5.00;;
15516;SDS011;7860;52.030;5.572;2022-08-21T00:55:31;8.91;;;5.01;;
15516;SDS011;7860;52.030;5.572;2022-08-21T00:56:31;10.43;;;5.36;;
15516;SDS011;7860;52.030;5.572;2022-08-21T00:57:33;11.20;;;5.22;;
15516;SDS011;7860;52.030;5.572;2022-08-21T00:58:31;12.28;;;5.21;;
15516;SDS011;7860;52.030;5.572;2022-08-21T00:59:32;10.73;;;5.35;;
15516;SDS011;7860;52.030;5.572;2022-08-21T01:00:32;11.15;;;5.35;;
15516;SDS011;7860;52.030;5.572;2022-08-21T01:01:32;10.08;;;5.37;;
15516;SDS011;7860;52.030;5.572;2022-08-21T01:02:31;16.26;;;5.59;;
15516;SDS011;7860;52.030;5.572;2022-08-21T01:03:32;11.84;;;5.64;;
15516;SDS011;7860;52.030;5.572;2022-08-21T01:04:32;10.40;;;5.27;;
15516;SDS011;7860;52.030;5.572;2022-08-21T01:05:32;10.48;;;5.37;;
15516;SDS011;7860;52.030;5.572;2022-08-21T01:06:32;10.11;;;5.51;;
15516;SDS011;7860;52.030;5.572;2022-08-21T01:07:32;10.91;;;5.38;;
15516;SDS011;7860;52.030;5.572;2022-08-21T01:08:32;10.79;;;5.75;;
15516;SDS011;7860;52.030;5.572;2022-08-21T01:09:32;9.54;;;5.30;;
15516;SDS011;7860;52.030;5.572;2022-08-21T01:10:32;10.83;;;5.63;;
15516;SDS011;7860;52.030;5.572;2022-08-21T01:11:33;10.91;;;5.34;;
15516;SDS011;7860;52.030;5.572;2022-08-21T01:12:33;11.81;;;5.85;;
15516;SDS011;7860;52.030;5.572;2022-08-21T01:13:34;11.70;;;5.48;;
15516;SDS011;7860;52.030;5.572;2022-08-21T01:14:33;10.50;;;5.41;;
15516;SDS011;7860;52.030;5.572;2022-08-21T01:15:34;11.26;;;5.57;;
15516;SDS011;7860;52.030;5.572;2022-08-21T01:16:33;11.95;;;5.67;;
15516;SDS011;7860;52.030;5.572;2022-08-21T01:17:34;9.95;;;5.32;;
15516;SDS011;7860;52.030;5.572;2022-08-21T01:18:34;10.34;;;5.32;;
15516;SDS011;7860;52.030;5.572;2022-08-21T01:19:34;9.75;;;5.47;;
15516;SDS011;7860;52.030;5.572;2022-08-21T01:20:35;11.09;;;5.58;;
15516;SDS011;7860;52.030;5.572;2022-08-21T01:21:35;10.60;;;5.62;;
15516;SDS011;7860;52.030;5.572;2022-08-21T01:22:35;12.06;;;5.62;;
15516;SDS011;7860;52.030;5.572;2022-08-21T01:23:36;10.97;;;5.53;;
15516;SDS011;7860;52.030;5.572;2022-08-21T01:24:35;10.18;;;5.15;;
15516;SDS011;7860;52.030;5.572;2022-08-21T01:25:36;13.12;;;5.51;;
15516;SDS011;7860;52.030;5.572;2022-08-21T01:26:37;13.28;;;5.66;;
15516;SDS011;7860;52.030;5.572;2022-08-21T01:27:37;12.14;;;5.43;;
15516;SDS011;7860;52.030;5.572;2022-08-21T01:28:38;12.39;;;5.80;;
15516;SDS011;7860;52.030;5.572;2022-08-21T01:29:38;11.58;;;5.41;;
15516;SDS011;7860;52.030;5.572;2022-08-21T01:30:37;12.82;;;5.83;;
15516;SDS011;7860;52.030;5.572;2022-08-21T01:31:37;11.90;;;5.67;;
15516;SDS011;7860;52.030;5.572;2022-08-21T01:32:37;11.91;;;5.56;;
15516;SDS011;7860;52.030;5.572;2022-08-21T01:33:37;13.47;;;6.35;;
15516;SDS011;7860;52.030;5.572;2022-08-21T01:34:38;13.05;;;5.97;;
15516;SDS011;7860;52.030;5.572;2022-08-21T01:35:38;13.41;;;5.91;;
15516;SDS011;7860;52.030;5.572;2022-08-21T01:36:38;13.91;;;6.59;;
15516;SDS011;7860;52.030;5.572;2022-08-21T01:37:38;14.00;;;6.43;;
15516;SDS011;7860;52.030;5.572;2022-08-21T01:38:39;14.34;;;5.92;;
15516;SDS011;7860;52.030;5.572;2022-08-21T01:39:39;14.20;;;6.13;;
15516;SDS011;7860;52.030;5.572;2022-08-21T01:40:39;12.05;;;5.64;;
15516;SDS011;7860;52.030;5.572;2022-08-21T01:41:39;13.72;;;6.09;;
15516;SDS011;7860;52.030;5.572;2022-08-21T01:42:39;11.74;;;6.08;;
15516;SDS011;7860;52.030;5.572;2022-08-21T01:43:39;14.32;;;6.36;;
15516;SDS011;7860;52.030;5.572;2022-08-21T01:44:39;13.48;;;6.43;;
15516;SDS011;7860;52.030;5.572;2022-08-21T01:45:39;15.53;;;6.16;;
15516;SDS011;7860;52.030;5.572;2022-08-21T01:46:39;14.98;;;6.47;;
15516;SDS011;7860;52.030;5.572;2022-08-21T01:47:40;16.11;;;6.90;;
15516;SDS011;7860;52.030;5.572;2022-08-21T01:48:40;14.58;;;6.56;;
15516;SDS011;7860;52.030;5.572;2022-08-21T01:49:40;13.03;;;6.21;;
15516;SDS011;7860;52.030;5.572;2022-08-21T01:50:39;13.90;;;6.41;;
15516;SDS011;7860;52.030;5.572;2022-08-21T01:51:39;12.98;;;6.30;;
15516;SDS011;7860;52.030;5.572;2022-08-21T01:52:40;12.40;;;6.09;;
15516;SDS011;7860;52.030;5.572;2022-08-21T01:53:40;10.74;;;5.63;;
15516;SDS011;7860;52.030;5.572;2022-08-21T01:54:41;11.08;;;5.52;;
15516;SDS011;7860;52.030;5.572;2022-08-21T01:55:41;10.05;;;5.94;;
15516;SDS011;7860;52.030;5.572;2022-08-21T01:56:42;12.10;;;6.22;;
15516;SDS011;7860;52.030;5.572;2022-08-21T01:57:42;14.01;;;6.68;;
15516;SDS011;7860;52.030;5.572;2022-08-21T01:58:43;13.98;;;7.09;;
15516;SDS011;7860;52.030;5.572;2022-08-21T01:59:42;10.39;;;5.69;;
15516;SDS011;7860;52.030;5.572;2022-08-21T02:00:42;10.79;;;5.80;;
15516;SDS011;7860;52.030;5.572;2022-08-21T02:01:42;12.36;;;6.47;;
15516;SDS011;7860;52.030;5.572;2022-08-21T02:02:42;12.46;;;5.84;;
15516;SDS011;7860;52.030;5.572;2022-08-21T02:03:42;12.98;;;6.66;;
15516;SDS011;7860;52.030;5.572;2022-08-21T02:04:42;12.82;;;6.57;;
15516;SDS011;7860;52.030;5.572;2022-08-21T02:05:42;12.08;;;6.21;;
15516;SDS011;7860;52.030;5.572;2022-08-21T02:06:42;13.83;;;6.82;;
15516;SDS011;7860;52.030;5.572;2022-08-21T02:07:43;12.71;;;6.40;;
15516;SDS011;7860;52.030;5.572;2022-08-21T02:08:42;12.33;;;6.02;;
15516;SDS011;7860;52.030;5.572;2022-08-21T02:09:42;11.14;;;6.04;;
15516;SDS011;7860;52.030;5.572;2022-08-21T02:10:42;10.72;;;6.23;;
15516;SDS011;7860;52.030;5.572;2022-08-21T02:11:42;12.66;;;6.20;;
15516;SDS011;7860;52.030;5.572;2022-08-21T02:12:42;9.67;;;5.67;;
15516;SDS011;7860;52.030;5.572;2022-08-21T02:13:43;12.45;;;6.36;;
15516;SDS011;7860;52.030;5.572;2022-08-21T02:14:43;12.88;;;6.14;;
15516;SDS011;7860;52.030;5.572;2022-08-21T02:15:43;13.59;;;6.43;;
15516;SDS011;7860;52.030;5.572;2022-08-21T02:16:43;12.10;;;6.45;;
15516;SDS011;7860;52.030;5.572;2022-08-21T02:17:44;13.46;;;6.22;;
15516;SDS011;7860;52.030;5.572;2022-08-21T02:18:44;10.94;;;5.89;;
15516;SDS011;7860;52.030;5.572;2022-08-21T02:19:44;11.72;;;6.38;;
15516;SDS011;7860;52.030;5.572;2022-08-21T02:20:46;10.45;;;6.02;;
15516;SDS011;7860;52.030;5.572;2022-08-21T02:21:44;10.47;;;6.01;;
15516;SDS011;7860;52.030;5.572;2022-08-21T02:22:44;11.71;;;6.53;;
15516;SDS011;7860;52.030;5.572;2022-08-21T02:23:45;12.62;;;6.74;;
15516;SDS011;7860;52.030;5.572;2022-08-21T02:24:44;10.85;;;5.93;;
15516;SDS011;7860;52.030;5.572;2022-08-21T02:25:44;10.48;;;6.09;;
15516;SDS011;7860;52.030;5.572;2022-08-21T02:26:44;10.62;;;6.10;;
15516;SDS011;7860;52.030;5.572;2022-08-21T02:27:45;11.90;;;5.87;;
15516;SDS011;7860;52.030;5.572;2022-08-21T02:28:45;11.44;;;6.17;;
15516;SDS011;7860;52.030;5.572;2022-08-21T02:29:46;10.90;;;5.52;;
15516;SDS011;7860;52.030;5.572;2022-08-21T02:30:46;11.16;;;6.05;;
15516;SDS011;7860;52.030;5.572;2022-08-21T02:31:46;10.62;;;6.22;;
15516;SDS011;7860;52.030;5.572;2022-08-21T02:32:46;10.48;;;6.01;;
15516;SDS011;7860;52.030;5.572;2022-08-21T02:33:46;12.80;;;6.61;;
15516;SDS011;7860;52.030;5.572;2022-08-21T02:34:46;10.65;;;6.13;;
15516;SDS011;7860;52.030;5.572;2022-08-21T02:35:46;12.78;;;6.15;;
15516;SDS011;7860;52.030;5.572;2022-08-21T02:36:46;11.83;;;6.22;;
15516;SDS011;7860;52.030;5.572;2022-08-21T02:37:49;10.59;;;6.07;;
15516;SDS011;7860;52.030;5.572;2022-08-21T02:38:46;12.58;;;6.21;;
15516;SDS011;7860;52.030;5.572;2022-08-21T02:39:47;13.68;;;6.13;;
15516;SDS011;7860;52.030;5.572;2022-08-21T02:40:48;11.78;;;5.98;;
15516;SDS011;7860;52.030;5.572;2022-08-21T02:41:47;11.41;;;5.57;;
15516;SDS011;7860;52.030;5.572;2022-08-21T02:42:47;11.10;;;6.03;;
15516;SDS011;7860;52.030;5.572;2022-08-21T02:43:48;11.53;;;5.97;;
15516;SDS011;7860;52.030;5.572;2022-08-21T02:44:48;11.37;;;5.91;;
15516;SDS011;7860;52.030;5.572;2022-08-21T02:45:48;10.45;;;5.74;;
15516;SDS011;7860;52.030;5.572;2022-08-21T02:46:48;10.17;;;5.57;;
15516;SDS011;7860;52.030;5.572;2022-08-21T02:47:49;10.94;;;5.53;;
15516;SDS011;7860;52.030;5.572;2022-08-21T02:48:49;9.32;;;5.24;;
15516;SDS011;7860;52.030;5.572;2022-08-21T02:49:49;10.40;;;5.53;;
15516;SDS011;7860;52.030;5.572;2022-08-21T02:50:51;10.56;;;5.78;;
15516;SDS011;7860;52.030;5.572;2022-08-21T02:51:49;10.47;;;5.33;;
15516;SDS011;7860;52.030;5.572;2022-08-21T02:52:49;9.35;;;5.56;;
15516;SDS011;7860;52.030;5.572;2022-08-21T02:53:49;10.94;;;6.11;;
15516;SDS011;7860;52.030;5.572;2022-08-21T02:54:50;11.99;;;5.86;;
15516;SDS011;7860;52.030;5.572;2022-08-21T02:55:51;11.51;;;6.11;;
15516;SDS011;7860;52.030;5.572;2022-08-21T02:56:50;11.28;;;5.99;;
15516;SDS011;7860;52.030;5.572;2022-08-21T02:57:51;10.79;;;5.71;;
15516;SDS011;7860;52.030;5.572;2022-08-21T02:58:51;11.90;;;6.09;;
15516;SDS011;7860;52.030;5.572;2022-08-21T02:59:52;11.20;;;6.00;;
15516;SDS011;7860;52.030;5.572;2022-08-21T03:00:52;10.19;;;5.57;;
15516;SDS011;7860;52.030;5.572;2022-08-21T03:01:52;10.05;;;5.47;;
15516;SDS011;7860;52.030;5.572;2022-08-21T03:02:53;10.97;;;5.77;;
15516;SDS011;7860;52.030;5.572;2022-08-21T03:03:53;9.38;;;5.50;;
15516;SDS011;7860;52.030;5.572;2022-08-21T03:04:53;11.48;;;5.95;;
15516;SDS011;7860;52.030;5.572;2022-08-21T03:05:53;9.75;;;5.41;;
15516;SDS011;7860;52.030;5.572;2022-08-21T03:06:53;10.81;;;5.82;;
15516;SDS011;7860;52.030;5.572;2022-08-21T03:07:54;11.36;;;6.18;;
15516;SDS011;7860;52.030;5.572;2022-08-21T03:08:54;10.23;;;5.63;;
15516;SDS011;7860;52.030;5.572;2022-08-21T03:09:54;14.22;;;5.71;;
15516;SDS011;7860;52.030;5.572;2022-08-21T03:10:54;11.98;;;5.88;;
15516;SDS011;7860;52.030;5.572;2022-08-21T03:11:54;9.65;;;5.43;;
15516;SDS011;7860;52.030;5.572;2022-08-21T03:12:54;11.12;;;6.36;;
15516;SDS011;7860;52.030;5.572;2022-08-21T03:13:54;12.26;;;6.21;;
15516;SDS011;7860;52.030;5.572;2022-08-21T03:14:54;9.34;;;5.60;;
15516;SDS011;7860;52.030;5.572;2022-08-21T03:15:54;11.23;;;6.01;;
15516;SDS011;7860;52.030;5.572;2022-08-21T03:16:54;10.75;;;5.90;;
15516;SDS011;7860;52.030;5.572;2022-08-21T03:17:54;10.46;;;5.90;;
15516;SDS011;7860;52.030;5.572;2022-08-21T03:18:54;9.68;;;5.18;;
15516;SDS011;7860;52.030;5.572;2022-08-21T03:19:54;11.83;;;6.39;;
15516;SDS011;7860;52.030;5.572;2022-08-21T03:20:54;10.43;;;5.65;;
15516;SDS011;7860;52.030;5.572;2022-08-21T03:21:54;9.72;;;5.55;;
15516;SDS011;7860;52.030;5.572;2022-08-21T03:22:54;10.57;;;5.51;;
15516;SDS011;7860;52.030;5.572;2022-08-21T03:23:54;11.02;;;5.87;;
15516;SDS011;7860;52.030;5.572;2022-08-21T03:24:54;10.26;;;5.51;;
15516;SDS011;7860;52.030;5.572;2022-08-21T03:25:54;9.89;;;5.71;;
15516;SDS011;7860;52.030;5.572;2022-08-21T03:26:54;9.76;;;5.39;;
15516;SDS011;7860;52.030;5.572;2022-08-21T03:27:55;10.85;;;5.69;;
15516;SDS011;7860;52.030;5.572;2022-08-21T03:28:55;10.88;;;5.58;;
15516;SDS011;7860;52.030;5.572;2022-08-21T03:29:56;11.20;;;5.70;;
15516;SDS011;7860;52.030;5.572;2022-08-21T03:30:55;10.36;;;5.39;;
15516;SDS011;7860;52.030;5.572;2022-08-21T03:31:56;11.34;;;5.54;;
15516;SDS011;7860;52.030;5.572;2022-08-21T03:32:56;9.95;;;5.41;;
15516;SDS011;7860;52.030;5.572;2022-08-21T03:33:57;12.19;;;5.75;;
15516;SDS011;7860;52.030;5.572;2022-08-21T03:34:58;10.73;;;5.38;;
15516;SDS011;7860;52.030;5.572;2022-08-21T03:35:59;10.61;;;5.45;;
15516;SDS011;7860;52.030;5.572;2022-08-21T03:36:58;11.10;;;5.55;;
15516;SDS011;7860;52.030;5.572;2022-08-21T03:37:58;13.72;;;5.85;;
15516;SDS011;7860;52.030;5.572;2022-08-21T03:38:59;11.45;;;5.47;;
15516;SDS011;7860;52.030;5.572;2022-08-21T03:39:59;11.02;;;5.74;;
15516;SDS011;7860;52.030;5.572;2022-08-21T03:40:59;9.48;;;5.07;;
15516;SDS011;7860;52.030;5.572;2022-08-21T03:41:59;13.05;;;5.97;;
15516;SDS011;7860;52.030;5.572;2022-08-21T03:43:00;9.87;;;5.25;;
15516;SDS011;7860;52.030;5.572;2022-08-21T03:44:00;9.87;;;5.05;;
15516;SDS011;7860;52.030;5.572;2022-08-21T03:45:01;12.73;;;5.73;;
15516;SDS011;7860;52.030;5.572;2022-08-21T03:46:02;11.59;;;5.29;;
15516;SDS011;7860;52.030;5.572;2022-08-21T03:47:01;10.81;;;5.71;;
15516;SDS011;7860;52.030;5.572;2022-08-21T03:48:02;12.23;;;5.95;;
15516;SDS011;7860;52.030;5.572;2022-08-21T03:49:01;10.38;;;5.79;;
15516;SDS011;7860;52.030;5.572;2022-08-21T03:50:01;11.04;;;5.84;;
15516;SDS011;7860;52.030;5.572;2022-08-21T03:51:01;11.15;;;5.93;;
15516;SDS011;7860;52.030;5.572;2022-08-21T03:52:01;9.90;;;5.64;;
15516;SDS011;7860;52.030;5.572;2022-08-21T03:53:02;12.60;;;6.05;;
15516;SDS011;7860;52.030;5.572;2022-08-21T03:54:02;11.58;;;5.90;;
15516;SDS011;7860;52.030;5.572;2022-08-21T03:55:02;11.11;;;5.47;;
15516;SDS011;7860;52.030;5.572;2022-08-21T03:56:03;10.35;;;5.56;;
15516;SDS011;7860;52.030;5.572;2022-08-21T03:57:03;13.42;;;5.75;;
15516;SDS011;7860;52.030;5.572;2022-08-21T03:58:03;10.58;;;5.51;;
15516;SDS011;7860;52.030;5.572;2022-08-21T03:59:03;12.08;;;5.86;;
15516;SDS011;7860;52.030;5.572;2022-08-21T04:00:06;12.96;;;6.13;;
15516;SDS011;7860;52.030;5.572;2022-08-21T04:01:04;9.14;;;5.49;;
15516;SDS011;7860;52.030;5.572;2022-08-21T04:02:04;10.40;;;5.35;;
15516;SDS011;7860;52.030;5.572;2022-08-21T04:03:04;10.69;;;5.64;;
15516;SDS011;7860;52.030;5.572;2022-08-21T04:04:04;11.27;;;5.68;;
15516;SDS011;7860;52.030;5.572;2022-08-21T04:05:04;11.09;;;5.54;;
15516;SDS011;7860;52.030;5.572;2022-08-21T04:06:05;9.96;;;5.41;;
15516;SDS011;7860;52.030;5.572;2022-08-21T04:07:04;10.27;;;5.90;;
15516;SDS011;7860;52.030;5.572;2022-08-21T04:08:05;10.34;;;5.40;;
15516;SDS011;7860;52.030;5.572;2022-08-21T04:09:05;11.12;;;5.62;;
15516;SDS011;7860;52.030;5.572;2022-08-21T04:10:06;11.25;;;6.16;;
15516;SDS011;7860;52.030;5.572;2022-08-21T04:11:05;13.23;;;5.86;;
15516;SDS011;7860;52.030;5.572;2022-08-21T04:12:05;9.73;;;5.70;;
15516;SDS011;7860;52.030;5.572;2022-08-21T04:13:07;11.04;;;6.19;;
15516;SDS011;7860;52.030;5.572;2022-08-21T04:14:05;10.41;;;5.64;;
15516;SDS011;7860;52.030;5.572;2022-08-21T04:15:06;12.10;;;6.09;;
15516;SDS011;7860;52.030;5.572;2022-08-21T04:16:06;11.18;;;5.55;;
15516;SDS011;7860;52.030;5.572;2022-08-21T04:17:05;10.02;;;5.60;;
15516;SDS011;7860;52.030;5.572;2022-08-21T04:18:06;11.35;;;6.35;;
15516;SDS011;7860;52.030;5.572;2022-08-21T04:19:06;10.77;;;5.88;;
15516;SDS011;7860;52.030;5.572;2022-08-21T04:20:07;11.04;;;6.22;;
15516;SDS011;7860;52.030;5.572;2022-08-21T04:21:07;11.58;;;6.07;;
15516;SDS011;7860;52.030;5.572;2022-08-21T04:22:07;9.94;;;5.97;;
15516;SDS011;7860;52.030;5.572;2022-08-21T04:23:07;11.29;;;5.91;;
15516;SDS011;7860;52.030;5.572;2022-08-21T04:24:08;10.85;;;5.85;;
15516;SDS011;7860;52.030;5.572;2022-08-21T04:25:08;11.21;;;5.88;;
15516;SDS011;7860;52.030;5.572;2022-08-21T04:26:08;11.35;;;5.85;;
15516;SDS011;7860;52.030;5.572;2022-08-21T04:27:08;10.56;;;5.79;;
15516;SDS011;7860;52.030;5.572;2022-08-21T04:28:09;11.15;;;6.16;;
15516;SDS011;7860;52.030;5.572;2022-08-21T04:29:09;11.67;;;6.15;;
15516;SDS011;7860;52.030;5.572;2022-08-21T04:30:09;10.71;;;6.02;;
15516;SDS011;7860;52.030;5.572;2022-08-21T04:31:09;12.34;;;6.46;;
15516;SDS011;7860;52.030;5.572;2022-08-21T04:32:10;11.77;;;6.30;;
15516;SDS011;7860;52.030;5.572;2022-08-21T04:33:10;12.17;;;6.56;;
15516;SDS011;7860;52.030;5.572;2022-08-21T04:34:10;10.54;;;6.45;;
15516;SDS011;7860;52.030;5.572;2022-08-21T04:35:10;12.90;;;6.55;;
15516;SDS011;7860;52.030;5.572;2022-08-21T04:36:10;14.51;;;6.55;;
15516;SDS011;7860;52.030;5.572;2022-08-21T04:37:11;12.13;;;6.23;;
15516;SDS011;7860;52.030;5.572;2022-08-21T04:38:11;12.00;;;6.48;;
15516;SDS011;7860;52.030;5.572;2022-08-21T04:39:11;12.01;;;6.48;;
15516;SDS011;7860;52.030;5.572;2022-08-21T04:40:11;12.86;;;6.53;;
15516;SDS011;7860;52.030;5.572;2022-08-21T04:41:11;12.42;;;6.48;;
15516;SDS011;7860;52.030;5.572;2022-08-21T04:42:12;12.65;;;5.97;;
15516;SDS011;7860;52.030;5.572;2022-08-21T04:43:12;12.50;;;6.54;;
15516;SDS011;7860;52.030;5.572;2022-08-21T04:44:12;12.26;;;6.35;;
15516;SDS011;7860;52.030;5.572;2022-08-21T04:45:16;15.12;;;6.92;;
15516;SDS011;7860;52.030;5.572;2022-08-21T04:46:12;14.02;;;6.32;;
15516;SDS011;7860;52.030;5.572;2022-08-21T04:47:13;15.14;;;6.73;;
15516;SDS011;7860;52.030;5.572;2022-08-21T04:48:13;12.31;;;6.70;;
15516;SDS011;7860;52.030;5.572;2022-08-21T04:49:13;11.60;;;6.12;;
15516;SDS011;7860;52.030;5.572;2022-08-21T04:50:13;11.51;;;6.82;;
15516;SDS011;7860;52.030;5.572;2022-08-21T04:51:14;13.94;;;6.89;;
15516;SDS011;7860;52.030;5.572;2022-08-21T04:52:15;12.66;;;7.02;;
15516;SDS011;7860;52.030;5.572;2022-08-21T04:53:16;12.89;;;6.48;;
15516;SDS011;7860;52.030;5.572;2022-08-21T04:54:16;11.33;;;6.44;;
15516;SDS011;7860;52.030;5.572;2022-08-21T04:55:15;13.38;;;6.63;;
15516;SDS011;7860;52.030;5.572;2022-08-21T04:56:19;12.70;;;6.59;;
15516;SDS011;7860;52.030;5.572;2022-08-21T04:57:16;12.06;;;6.76;;
15516;SDS011;7860;52.030;5.572;2022-08-21T04:58:17;13.21;;;6.59;;
15516;SDS011;7860;52.030;5.572;2022-08-21T04:59:17;13.07;;;6.80;;
15516;SDS011;7860;52.030;5.572;2022-08-21T05:00:16;13.68;;;6.49;;
15516;SDS011;7860;52.030;5.572;2022-08-21T05:01:17;12.18;;;6.48;;
15516;SDS011;7860;52.030;5.572;2022-08-21T05:02:17;12.97;;;6.01;;
15516;SDS011;7860;52.030;5.572;2022-08-21T05:03:17;12.39;;;6.32;;
15516;SDS011;7860;52.030;5.572;2022-08-21T05:04:18;11.52;;;6.30;;
15516;SDS011;7860;52.030;5.572;2022-08-21T05:05:17;12.58;;;7.14;;
15516;SDS011;7860;52.030;5.572;2022-08-21T05:06:18;11.73;;;6.48;;
15516;SDS011;7860;52.030;5.572;2022-08-21T05:07:19;13.43;;;7.05;;
15516;SDS011;7860;52.030;5.572;2022-08-21T05:08:20;14.24;;;6.77;;
15516;SDS011;7860;52.030;5.572;2022-08-21T05:09:19;13.45;;;7.01;;
15516;SDS011;7860;52.030;5.572;2022-08-21T05:10:19;12.21;;;6.09;;
15516;SDS011;7860;52.030;5.572;2022-08-21T05:11:19;11.55;;;6.52;;
15516;SDS011;7860;52.030;5.572;2022-08-21T05:12:20;12.77;;;6.98;;
15516;SDS011;7860;52.030;5.572;2022-08-21T05:13:20;12.41;;;6.57;;
15516;SDS011;7860;52.030;5.572;2022-08-21T05:14:20;12.96;;;6.42;;
15516;SDS011;7860;52.030;5.572;2022-08-21T05:15:21;13.86;;;6.86;;
15516;SDS011;7860;52.030;5.572;2022-08-21T05:16:21;13.41;;;7.22;;
15516;SDS011;7860;52.030;5.572;2022-08-21T05:17:21;12.29;;;6.70;;
15516;SDS011;7860;52.030;5.572;2022-08-21T05:18:21;12.36;;;6.59;;
15516;SDS011;7860;52.030;5.572;2022-08-21T05:19:21;14.89;;;7.05;;
15516;SDS011;7860;52.030;5.572;2022-08-21T05:20:21;14.05;;;7.22;;
15516;SDS011;7860;52.030;5.572;2022-08-21T05:21:21;12.85;;;6.63;;
15516;SDS011;7860;52.030;5.572;2022-08-21T05:22:22;12.12;;;7.00;;
15516;SDS011;7860;52.030;5.572;2022-08-21T05:23:22;12.77;;;6.87;;
15516;SDS011;7860;52.030;5.572;2022-08-21T05:24:22;12.74;;;6.83;;
15516;SDS011;7860;52.030;5.572;2022-08-21T05:25:22;14.28;;;7.13;;
15516;SDS011;7860;52.030;5.572;2022-08-21T05:26:23;13.84;;;7.41;;
15516;SDS011;7860;52.030;5.572;2022-08-21T05:27:23;12.45;;;6.88;;
15516;SDS011;7860;52.030;5.572;2022-08-21T05:28:23;14.87;;;7.29;;
15516;SDS011;7860;52.030;5.572;2022-08-21T05:29:24;14.45;;;7.83;;
15516;SDS011;7860;52.030;5.572;2022-08-21T05:30:24;13.62;;;7.40;;
15516;SDS011;7860;52.030;5.572;2022-08-21T05:31:24;13.56;;;7.65;;
15516;SDS011;7860;52.030;5.572;2022-08-21T05:32:24;14.82;;;7.11;;
15516;SDS011;7860;52.030;5.572;2022-08-21T05:33:24;14.77;;;7.19;;
15516;SDS011;7860;52.030;5.572;2022-08-21T05:34:25;14.41;;;7.63;;
15516;SDS011;7860;52.030;5.572;2022-08-21T05:35:25;17.26;;;7.23;;
15516;SDS011;7860;52.030;5.572;2022-08-21T05:36:25;16.02;;;7.04;;
15516;SDS011;7860;52.030;5.572;2022-08-21T05:37:25;13.32;;;6.72;;
15516;SDS011;7860;52.030;5.572;2022-08-21T05:38:25;13.05;;;7.57;;
15516;SDS011;7860;52.030;5.572;2022-08-21T05:39:25;15.61;;;8.03;;
15516;SDS011;7860;52.030;5.572;2022-08-21T05:40:25;13.91;;;6.93;;
15516;SDS011;7860;52.030;5.572;2022-08-21T05:41:25;13.84;;;7.21;;
15516;SDS011;7860;52.030;5.572;2022-08-21T05:42:25;15.79;;;7.60;;
15516;SDS011;7860;52.030;5.572;2022-08-21T05:43:26;13.93;;;7.03;;
15516;SDS011;7860;52.030;5.572;2022-08-21T05:44:26;14.08;;;7.40;;
15516;SDS011;7860;52.030;5.572;2022-08-21T05:45:29;16.85;;;7.33;;
15516;SDS011;7860;52.030;5.572;2022-08-21T05:46:27;14.46;;;7.11;;
15516;SDS011;7860;52.030;5.572;2022-08-21T05:47:27;12.63;;;6.91;;
15516;SDS011;7860;52.030;5.572;2022-08-21T05:48:27;15.56;;;7.60;;
15516;SDS011;7860;52.030;5.572;2022-08-21T05:49:27;14.56;;;6.59;;
15516;SDS011;7860;52.030;5.572;2022-08-21T05:50:27;13.53;;;6.99;;
15516;SDS011;7860;52.030;5.572;2022-08-21T05:51:27;13.67;;;7.41;;
15516;SDS011;7860;52.030;5.572;2022-08-21T05:52:27;11.48;;;6.12;;
15516;SDS011;7860;52.030;5.572;2022-08-21T05:53:27;15.47;;;7.52;;
15516;SDS011;7860;52.030;5.572;2022-08-21T05:54:27;13.99;;;6.89;;
15516;SDS011;7860;52.030;5.572;2022-08-21T05:55:27;15.86;;;7.63;;
15516;SDS011;7860;52.030;5.572;2022-08-21T05:56:27;14.23;;;6.63;;
15516;SDS011;7860;52.030;5.572;2022-08-21T05:57:27;12.94;;;6.46;;
15516;SDS011;7860;52.030;5.572;2022-08-21T05:58:27;14.01;;;6.80;;
15516;SDS011;7860;52.030;5.572;2022-08-21T05:59:27;13.34;;;6.73;;
15516;SDS011;7860;52.030;5.572;2022-08-21T06:00:27;15.67;;;7.21;;
15516;SDS011;7860;52.030;5.572;2022-08-21T06:01:27;12.75;;;6.52;;
15516;SDS011;7860;52.030;5.572;2022-08-21T06:02:27;13.09;;;6.26;;
15516;SDS011;7860;52.030;5.572;2022-08-21T06:03:29;12.98;;;6.49;;